Time;durP1;ratioP1;P1;durP2;ratioP2;P2;SDS_P1;SDS_P2;PMS_P1;PMS_P2;Temp;Humidity;BMP_temperature;BMP_pressure;BME280_temperature;BME280_humidity;BME280_pressure;Samples;Min_cycle;Max_cycle;Signal;HPM_P1;HPM_P2
2022/02/21 00:01:08;;;;;;;0.10;0.10;;;;;;;;;;5068201;28;20331;-71
2022/02/21 00:03:35;;;;;;;0.10;0.10;;;;;;;;;;5079049;28;20246;-70
2022/02/21 00:06:03;;;;;;;0.10;0.10;;;;;;;;;;5068179;28;20305;-70
2022/02/21 00:08:29;;;;;;;0.13;0.13;;;;;;;;;;5079134;28;20208;-70
2022/02/21 00:10:55;;;;;;;0.10;0.10;;;;;;;;;;5066175;28;20323;-70
2022/02/21 00:13:21;;;;;;;0.10;0.10;;;;;;;;;;5081527;28;20348;-70
2022/02/21 00:15:48;;;;;;;0.10;0.10;;;;;;;;;;5063781;28;20654;-69
2022/02/21 00:18:14;;;;;;;0.10;0.10;;;;;;;;;;5083306;28;20251;-70
2022/02/21 00:20:43;;;;;;;0.10;0.10;;;;;;;;;;5062246;28;20396;-71
2022/02/21 00:23:09;;;;;;;0.10;0.10;;;;;;;;;;5084754;28;20212;-69
2022/02/21 00:25:35;;;;;;;0.13;0.13;;;;;;;;;;5060476;28;20553;-70
2022/02/21 00:28:01;;;;;;;0.10;0.10;;;;;;;;;;5086646;28;20200;-70
2022/02/21 00:30:28;;;;;;;0.10;0.10;;;;;;;;;;5058502;28;20254;-70
2022/02/21 00:32:54;;;;;;;0.20;0.20;;;;;;;;;;5088375;28;20200;-70
2022/02/21 00:35:20;;;;;;;0.10;0.10;;;;;;;;;;5056279;28;20262;-70
2022/02/21 00:37:48;;;;;;;0.10;0.10;;;;;;;;;;5089418;28;20216;-69
2022/02/21 00:40:14;;;;;;;0.10;0.10;;;;;;;;;;5054646;28;20204;-70
2022/02/21 00:42:40;;;;;;;0.10;0.10;;;;;;;;;;5092052;28;20223;-70
2022/02/21 00:45:09;;;;;;;0.10;0.10;;;;;;;;;;5052422;28;20265;-70
2022/02/21 00:47:36;;;;;;;0.10;0.10;;;;;;;;;;5093389;28;20200;-72
2022/02/21 00:50:02;;;;;;;0.10;0.10;;;;;;;;;;5062281;28;20206;-70
2022/02/21 00:52:28;;;;;;;0.10;0.10;;;;;;;;;;5084316;28;20478;-72
2022/02/21 00:54:56;;;;;;;0.10;0.10;;;;;;;;;;5062314;28;20246;-70
2022/02/21 00:57:22;;;;;;;0.20;0.20;;;;;;;;;;5084254;28;20295;-70
2022/02/21 00:59:48;;;;;;;0.10;0.10;;;;;;;;;;5062161;28;20228;-69
2022/02/21 01:02:15;;;;;;;0.10;0.10;;;;;;;;;;5084136;28;20301;-70
2022/02/21 01:04:41;;;;;;;0.10;0.10;;;;;;;;;;5062210;28;20204;-70
2022/02/21 01:07:08;;;;;;;0.30;0.30;;;;;;;;;;5084175;28;20251;-70
2022/02/21 01:09:34;;;;;;;0.10;0.10;;;;;;;;;;5062366;28;20442;-69
2022/02/21 01:12:01;;;;;;;0.20;0.20;;;;;;;;;;5082793;28;20432;-70
2022/02/21 01:14:28;;;;;;;0.10;0.10;;;;;;;;;;5063230;28;20207;-70
2022/02/21 01:16:54;;;;;;;0.10;0.10;;;;;;;;;;5080979;28;20234;-70
2022/02/21 01:19:20;;;;;;;0.10;0.10;;;;;;;;;;5064910;28;20228;-69
2022/02/21 01:21:46;;;;;;;0.10;0.10;;;;;;;;;;5079213;28;20586;-69
2022/02/21 01:24:12;;;;;;;0.10;0.10;;;;;;;;;;5066518;28;20214;-71
2022/02/21 01:26:39;;;;;;;0.13;0.13;;;;;;;;;;5077194;28;20250;-69
2022/02/21 01:29:06;;;;;;;0.10;0.10;;;;;;;;;;5068653;28;20454;-70
2022/02/21 01:31:32;;;;;;;0.10;0.10;;;;;;;;;;5075345;28;20270;-71
2022/02/21 01:33:59;;;;;;;0.20;0.20;;;;;;;;;;5070369;28;20204;-69
2022/02/21 01:36:25;;;;;;;0.10;0.10;;;;;;;;;;5073220;28;20614;-71
2022/02/21 01:38:51;;;;;;;0.10;0.10;;;;;;;;;;5071932;28;20229;-69
2022/02/21 01:41:17;;;;;;;0.10;0.10;;;;;;;;;;5071378;28;20268;-71
2022/02/21 01:43:45;;;;;;;0.10;0.10;;;;;;;;;;5074425;28;20401;-69
2022/02/21 01:46:12;;;;;;;0.10;0.10;;;;;;;;;;5069572;28;20249;-70
2022/02/21 01:48:39;;;;;;;0.20;0.20;;;;;;;;;;5077015;28;20243;-70
2022/02/21 01:51:05;;;;;;;0.10;0.10;;;;;;;;;;5071488;28;20243;-69
2022/02/21 01:53:31;;;;;;;0.10;0.10;;;;;;;;;;5081538;28;20218;-70
2022/02/21 01:55:57;;;;;;;0.20;0.20;;;;;;;;;;5069355;28;20238;-70
2022/02/21 01:58:24;;;;;;;0.10;0.10;;;;;;;;;;5082822;28;20250;-70
2022/02/21 02:00:50;;;;;;;0.50;0.50;;;;;;;;;;5067512;28;20480;-70
2022/02/21 02:03:17;;;;;;;0.10;0.10;;;;;;;;;;5085098;28;20374;-71
2022/02/21 02:05:44;;;;;;;0.10;0.10;;;;;;;;;;5065535;28;20478;-71
2022/02/21 02:08:10;;;;;;;0.10;0.10;;;;;;;;;;5086515;28;20251;-70
2022/02/21 02:10:38;;;;;;;0.40;0.40;;;;;;;;;;5063550;28;20313;-71
2022/02/21 02:13:07;;;;;;;0.10;0.10;;;;;;;;;;5088152;28;20205;-71
2022/02/21 02:15:33;;;;;;;0.10;0.10;;;;;;;;;;5062703;28;20247;-70
2022/02/21 02:18:00;;;;;;;5.43;0.77;;;;;;;;;;5089146;28;20247;-70
2022/02/21 02:20:28;;;;;;;0.10;0.10;;;;;;;;;;5060116;28;20450;-69
2022/02/21 02:22:55;;;;;;;0.10;0.10;;;;;;;;;;5090817;28;20195;-71
2022/02/21 02:25:21;;;;;;;0.10;0.10;;;;;;;;;;5059231;28;20210;-69
2022/02/21 02:27:48;;;;;;;0.10;0.10;;;;;;;;;;5092382;28;20249;-71
2022/02/21 02:30:15;;;;;;;0.10;0.10;;;;;;;;;;5057179;28;20264;-70
2022/02/21 02:32:41;;;;;;;0.10;0.10;;;;;;;;;;5093803;28;20252;-71
2022/02/21 02:35:08;;;;;;;0.10;0.10;;;;;;;;;;5055222;28;20432;-69
2022/02/21 02:37:35;;;;;;;0.17;0.17;;;;;;;;;;5095807;28;20244;-69
2022/02/21 02:40:03;;;;;;;0.10;0.10;;;;;;;;;;5064471;28;20279;-69
2022/02/21 02:42:29;;;;;;;0.10;0.10;;;;;;;;;;5086112;28;20224;-70
2022/02/21 02:44:56;;;;;;;0.10;0.10;;;;;;;;;;5064541;28;20209;-70
2022/02/21 02:47:24;;;;;;;0.10;0.10;;;;;;;;;;5086291;28;20240;-70
2022/02/21 02:49:50;;;;;;;0.10;0.10;;;;;;;;;;5064519;28;20201;-70
2022/02/21 02:52:16;;;;;;;0.10;0.10;;;;;;;;;;5086315;28;20262;-70
2022/02/21 02:54:43;;;;;;;0.10;0.10;;;;;;;;;;5064347;28;20391;-70
2022/02/21 02:57:10;;;;;;;0.10;0.10;;;;;;;;;;5086258;28;20460;-70
2022/02/21 02:59:36;;;;;;;0.10;0.10;;;;;;;;;;5063546;28;20231;-70
2022/02/21 03:02:03;;;;;;;0.10;0.10;;;;;;;;;;5085201;28;20505;-70
2022/02/21 03:04:29;;;;;;;0.10;0.10;;;;;;;;;;5064557;28;20504;-70
2022/02/21 03:06:58;;;;;;;0.10;0.10;;;;;;;;;;5083484;28;20685;-71
2022/02/21 03:09:24;;;;;;;0.10;0.10;;;;;;;;;;5065744;28;20208;-70
2022/02/21 03:11:50;;;;;;;0.10;0.10;;;;;;;;;;5081855;28;20266;-71
2022/02/21 03:14:18;;;;;;;0.10;0.10;;;;;;;;;;5067637;28;20443;-70
2022/02/21 03:16:44;;;;;;;0.20;0.20;;;;;;;;;;5080216;28;20238;-70
2022/02/21 03:19:10;;;;;;;0.10;0.10;;;;;;;;;;5068832;28;20293;-70
2022/02/21 03:21:37;;;;;;;0.10;0.10;;;;;;;;;;5078363;28;20484;-70
2022/02/21 03:24:03;;;;;;;0.10;0.10;;;;;;;;;;5071160;28;20461;-72
2022/02/21 03:26:29;;;;;;;0.10;0.10;;;;;;;;;;5076078;28;20561;-70
2022/02/21 03:28:55;;;;;;;0.10;0.10;;;;;;;;;;5072619;28;20200;-70
2022/02/21 03:31:23;;;;;;;0.13;0.13;;;;;;;;;;5073804;28;20308;-70
2022/02/21 03:33:49;;;;;;;0.10;0.10;;;;;;;;;;5074866;28;20529;-71
2022/02/21 03:36:15;;;;;;;0.10;0.10;;;;;;;;;;5071975;28;20594;-70
2022/02/21 03:38:43;;;;;;;0.10;0.10;;;;;;;;;;5076199;28;20243;-70
2022/02/21 03:41:09;;;;;;;0.10;0.10;;;;;;;;;;5070488;28;20246;-70
2022/02/21 03:43:35;;;;;;;0.20;0.20;;;;;;;;;;5078058;28;20208;-70
2022/02/21 03:46:02;;;;;;;0.20;0.20;;;;;;;;;;5068435;28;20246;-70
2022/02/21 03:48:29;;;;;;;0.10;0.10;;;;;;;;;;5080145;28;20517;-70
2022/02/21 03:50:56;;;;;;;0.10;0.10;;;;;;;;;;5066431;28;20269;-70
2022/02/21 03:53:22;;;;;;;0.20;0.20;;;;;;;;;;5081203;28;20206;-70
2022/02/21 03:55:49;;;;;;;0.10;0.10;;;;;;;;;;5064558;28;20273;-70
2022/02/21 03:58:15;;;;;;;0.10;0.10;;;;;;;;;;5083197;28;20279;-70
2022/02/21 04:00:41;;;;;;;0.10;0.10;;;;;;;;;;5062435;28;20238;-70
2022/02/21 04:03:07;;;;;;;0.10;0.10;;;;;;;;;;5085357;28;20407;-69
2022/02/21 04:05:35;;;;;;;0.10;0.10;;;;;;;;;;5060573;28;20533;-69
2022/02/21 04:08:01;;;;;;;0.10;0.10;;;;;;;;;;5086919;28;20192;-69
2022/02/21 04:10:30;;;;;;;0.10;0.10;;;;;;;;;;5058498;28;20238;-69
2022/02/21 04:12:56;;;;;;;0.10;0.10;;;;;;;;;;5087662;28;20234;-69
2022/02/21 04:15:23;;;;;;;0.10;0.10;;;;;;;;;;5057049;28;20204;-69
2022/02/21 04:17:49;;;;;;;0.10;0.10;;;;;;;;;;5089801;28;20213;-69
2022/02/21 04:20:16;;;;;;;0.10;0.10;;;;;;;;;;5055629;28;20538;-70
2022/02/21 04:22:44;;;;;;;0.10;0.10;;;;;;;;;;5091565;28;20200;-70
2022/02/21 04:25:11;;;;;;;0.13;0.13;;;;;;;;;;5053917;28;20480;-69
2022/02/21 04:27:41;;;;;;;1.50;1.50;;;;;;;;;;5093127;28;20192;-71
2022/02/21 04:30:08;;;;;;;0.10;0.10;;;;;;;;;;5053243;28;20227;-70
2022/02/21 04:32:35;;;;;;;0.20;0.20;;;;;;;;;;5093920;28;20275;-70
2022/02/21 04:35:02;;;;;;;0.10;0.10;;;;;;;;;;5062507;28;20211;-69
2022/02/21 04:37:28;;;;;;;0.10;0.10;;;;;;;;;;5084388;28;20239;-70
2022/02/21 04:39:55;;;;;;;0.10;0.10;;;;;;;;;;5062522;28;20227;-69
2022/02/21 04:42:22;;;;;;;0.10;0.10;;;;;;;;;;5084332;28;20246;-70
2022/02/21 04:44:48;;;;;;;0.10;0.10;;;;;;;;;;5062349;28;20205;-70
2022/02/21 04:47:14;;;;;;;0.10;0.10;;;;;;;;;;5084511;28;20291;-70
2022/02/21 04:49:40;;;;;;;0.10;0.10;;;;;;;;;;5062626;28;20265;-71
2022/02/21 04:52:07;;;;;;;0.20;0.20;;;;;;;;;;5084231;28;20250;-70
2022/02/21 04:54:33;;;;;;;0.10;0.10;;;;;;;;;;5062197;28;20268;-70
2022/02/21 04:57:01;;;;;;;0.10;0.10;;;;;;;;;;5082520;28;20242;-70
2022/02/21 04:59:27;;;;;;;0.10;0.10;;;;;;;;;;5063162;28;20542;-70
2022/02/21 05:01:53;;;;;;;0.10;0.10;;;;;;;;;;5080931;28;20518;-70
2022/02/21 05:04:20;;;;;;;0.10;0.10;;;;;;;;;;5064774;28;20247;-70
2022/02/21 05:06:46;;;;;;;0.10;0.10;;;;;;;;;;5078920;28;20260;-70
2022/02/21 05:09:12;;;;;;;0.20;0.20;;;;;;;;;;5067243;28;20213;-70
2022/02/21 05:11:38;;;;;;;0.10;0.10;;;;;;;;;;5076891;28;20241;-70
2022/02/21 05:14:06;;;;;;;0.10;0.10;;;;;;;;;;5068965;28;20251;-69
2022/02/21 05:16:32;;;;;;;0.20;0.20;;;;;;;;;;5075163;28;20246;-72
2022/02/21 05:19:02;;;;;;;0.10;0.10;;;;;;;;;;5070708;28;20211;-71
2022/02/21 05:21:28;;;;;;;0.10;0.10;;;;;;;;;;5074174;28;20264;-71
2022/02/21 05:23:55;;;;;;;0.10;0.10;;;;;;;;;;5073667;28;20562;-71
2022/02/21 05:26:21;;;;;;;0.10;0.10;;;;;;;;;;5076261;28;20443;-71
2022/02/21 05:28:47;;;;;;;0.10;0.10;;;;;;;;;;5077559;28;20245;-72
2022/02/21 05:31:15;;;;;;;0.10;0.10;;;;;;;;;;5074235;28;20475;-72
2022/02/21 05:33:41;;;;;;;0.10;0.10;;;;;;;;;;5079307;28;20254;-70
2022/02/21 05:36:08;;;;;;;0.10;0.10;;;;;;;;;;5072277;28;20234;-72
2022/02/21 05:38:34;;;;;;;0.10;0.10;;;;;;;;;;5081110;28;20212;-72
2022/02/21 05:41:00;;;;;;;0.10;0.10;;;;;;;;;;5070393;28;20284;-72
2022/02/21 05:43:26;;;;;;;0.10;0.10;;;;;;;;;;5082865;28;20199;-71
2022/02/21 05:45:53;;;;;;;0.10;0.10;;;;;;;;;;5068253;28;20239;-70
2022/02/21 05:48:20;;;;;;;0.20;0.20;;;;;;;;;;5084805;28;20253;-71
2022/02/21 05:50:46;;;;;;;1.10;1.10;;;;;;;;;;5066530;28;20234;-70
2022/02/21 05:53:13;;;;;;;0.10;0.10;;;;;;;;;;5086503;28;20413;-71
2022/02/21 05:55:39;;;;;;;0.10;0.10;;;;;;;;;;5064159;28;20595;-71
2022/02/21 05:58:05;;;;;;;0.10;0.10;;;;;;;;;;5088401;28;20195;-71
2022/02/21 06:00:31;;;;;;;0.10;0.10;;;;;;;;;;5061072;28;20522;-70
2022/02/21 06:02:58;;;;;;;0.10;0.10;;;;;;;;;;5091653;28;20230;-71
2022/02/21 06:05:25;;;;;;;0.10;0.10;;;;;;;;;;5059997;28;20212;-71
2022/02/21 06:07:51;;;;;;;0.10;0.10;;;;;;;;;;5092191;28;20197;-70
2022/02/21 06:10:18;;;;;;;0.10;0.10;;;;;;;;;;5058202;28;20566;-71
2022/02/21 06:12:44;;;;;;;0.10;0.10;;;;;;;;;;5093663;28;20253;-71
2022/02/21 06:15:10;;;;;;;0.10;0.10;;;;;;;;;;5056289;28;20204;-70
2022/02/21 06:17:37;;;;;;;0.10;0.10;;;;;;;;;;5095763;28;20383;-70
2022/02/21 06:20:04;;;;;;;0.10;0.10;;;;;;;;;;5064924;28;20546;-71
2022/02/21 06:22:31;;;;;;;0.10;0.10;;;;;;;;;;5086757;28;20247;-70
2022/02/21 06:24:57;;;;;;;0.20;0.20;;;;;;;;;;5064802;28;20276;-70
2022/02/21 06:27:23;;;;;;;0.10;0.10;;;;;;;;;;5086745;28;20611;-70
2022/02/21 06:29:50;;;;;;;0.10;0.10;;;;;;;;;;5064872;28;20243;-70
2022/02/21 06:32:16;;;;;;;0.27;0.27;;;;;;;;;;5086641;28;20283;-71
2022/02/21 06:34:42;;;;;;;0.13;0.13;;;;;;;;;;5063564;28;20291;-64
2022/02/21 06:37:08;;;;;;;0.10;0.10;;;;;;;;;;5086311;28;20246;-63
2022/02/21 06:39:36;;;;;;;0.20;0.20;;;;;;;;;;5064602;28;20207;-64
2022/02/21 06:42:02;;;;;;;0.20;0.20;;;;;;;;;;5085771;28;20494;-66
2022/02/21 06:44:29;;;;;;;5.73;2.43;;;;;;;;;;5064954;28;20452;-64
2022/02/21 06:46:55;;;;;;;0.13;0.13;;;;;;;;;;5083871;28;20245;-65
2022/02/21 06:49:21;;;;;;;0.10;0.10;;;;;;;;;;5066936;28;20207;-65
2022/02/21 06:51:47;;;;;;;0.17;0.17;;;;;;;;;;5081774;28;20245;-64
2022/02/21 06:54:13;;;;;;;0.10;0.10;;;;;;;;;;5068883;28;20241;-65
2022/02/21 06:56:41;;;;;;;0.20;0.20;;;;;;;;;;5079808;28;20577;-64
2022/02/21 06:59:07;;;;;;;0.10;0.10;;;;;;;;;;5070470;28;20222;-65
2022/02/21 07:01:34;;;;;;;0.20;0.20;;;;;;;;;;5077106;28;20237;-64
2022/02/21 07:04:00;;;;;;;0.10;0.10;;;;;;;;;;5072868;28;20468;-64
2022/02/21 07:06:26;;;;;;;0.10;0.10;;;;;;;;;;5075538;28;20242;-64
2022/02/21 07:08:52;;;;;;;0.10;0.10;;;;;;;;;;5074598;28;20206;-64
2022/02/21 07:11:18;;;;;;;0.17;0.17;;;;;;;;;;5073516;28;20267;-64
2022/02/21 07:13:49;;;;;;;0.10;0.10;;;;;;;;;;5076536;28;20208;-64
2022/02/21 07:16:15;;;;;;;0.17;0.17;;;;;;;;;;5072734;28;20241;-64
2022/02/21 07:18:41;;;;;;;0.10;0.10;;;;;;;;;;5077033;28;20207;-64
2022/02/21 07:21:07;;;;;;;0.10;0.10;;;;;;;;;;5070515;28;20303;-64
2022/02/21 07:23:35;;;;;;;0.20;0.20;;;;;;;;;;5078906;28;20265;-65
2022/02/21 07:26:01;;;;;;;0.10;0.10;;;;;;;;;;5068967;28;20253;-64
2022/02/21 07:28:28;;;;;;;0.10;0.10;;;;;;;;;;5080651;28;20208;-64
2022/02/21 07:30:55;;;;;;;0.10;0.10;;;;;;;;;;5066965;28;20245;-64
2022/02/21 07:33:21;;;;;;;0.20;0.20;;;;;;;;;;5082063;28;20249;-64
2022/02/21 07:35:48;;;;;;;0.10;0.10;;;;;;;;;;5064750;28;20241;-64
2022/02/21 07:38:14;;;;;;;0.10;0.10;;;;;;;;;;5083884;28;20242;-65
2022/02/21 07:40:40;;;;;;;0.20;0.20;;;;;;;;;;5063377;28;20225;-65
2022/02/21 07:43:07;;;;;;;0.10;0.10;;;;;;;;;;5063454;28;20471;-64
2022/02/21 07:45:34;;;;;;;0.20;0.20;;;;;;;;;;5063544;28;20239;-65
2022/02/21 07:48:01;;;;;;;0.10;0.10;;;;;;;;;;5063196;28;20310;-65
2022/02/21 07:50:30;;;;;;;0.30;0.30;;;;;;;;;;5063494;28;20425;-64
2022/02/21 07:52:56;;;;;;;0.10;0.10;;;;;;;;;;5062966;28;20268;-65
2022/02/21 07:55:25;;;;;;;0.10;0.10;;;;;;;;;;5063129;28;20222;-65
2022/02/21 07:57:51;;;;;;;0.10;0.10;;;;;;;;;;5062858;28;20273;-64
2022/02/21 08:00:19;;;;;;;0.10;0.10;;;;;;;;;;5062582;28;20235;-64
2022/02/21 08:02:47;;;;;;;0.10;0.10;;;;;;;;;;5062877;28;20274;-64
2022/02/21 08:05:15;;;;;;;0.10;0.10;;;;;;;;;;5063113;28;20246;-64
2022/02/21 08:07:42;;;;;;;0.10;0.10;;;;;;;;;;5062805;28;20261;-64
2022/02/21 08:10:09;;;;;;;0.27;0.27;;;;;;;;;;5062905;28;20204;-64
2022/02/21 08:12:35;;;;;;;0.10;0.10;;;;;;;;;;5062736;28;20204;-64
2022/02/21 08:15:01;;;;;;;0.10;0.10;;;;;;;;;;5063045;28;20205;-64
2022/02/21 08:17:28;;;;;;;0.10;0.10;;;;;;;;;;5062935;28;20203;-65
2022/02/21 08:19:54;;;;;;;0.20;0.20;;;;;;;;;;5062779;28;20206;-64
2022/02/21 08:22:22;;;;;;;0.10;0.10;;;;;;;;;;5062788;28;20546;-64
2022/02/21 08:24:48;;;;;;;0.10;0.10;;;;;;;;;;5062710;28;20221;-65
2022/02/21 08:27:14;;;;;;;0.10;0.10;;;;;;;;;;5062732;28;20568;-64
2022/02/21 08:29:40;;;;;;;0.10;0.10;;;;;;;;;;5062495;28;20251;-64
2022/02/21 08:32:07;;;;;;;0.10;0.10;;;;;;;;;;5062636;28;20527;-64
2022/02/21 08:34:33;;;;;;;0.10;0.10;;;;;;;;;;5062719;28;20306;-65
2022/02/21 08:37:00;;;;;;;0.10;0.10;;;;;;;;;;5062311;28;20211;-64
2022/02/21 08:39:28;;;;;;;0.10;0.10;;;;;;;;;;5062298;28;20208;-64
2022/02/21 08:41:54;;;;;;;0.10;0.10;;;;;;;;;;5062161;28;20257;-64
2022/02/21 08:44:21;;;;;;;0.10;0.10;;;;;;;;;;5062246;28;20211;-64
2022/02/21 08:46:49;;;;;;;0.10;0.10;;;;;;;;;;5062524;28;20205;-64
2022/02/21 08:49:18;;;;;;;0.10;0.10;;;;;;;;;;5062247;28;20445;-65
2022/02/21 08:51:44;;;;;;;0.30;0.30;;;;;;;;;;5062505;28;20241;-65
2022/02/21 08:54:11;;;;;;;0.10;0.10;;;;;;;;;;5062536;28;20209;-65
2022/02/21 08:56:40;;;;;;;0.20;0.20;;;;;;;;;;5062205;28;20281;-65
2022/02/21 08:59:06;;;;;;;0.10;0.10;;;;;;;;;;5064277;28;20478;-64
2022/02/21 09:01:32;;;;;;;0.10;0.10;;;;;;;;;;5066553;28;20597;-64
2022/02/21 09:03:58;;;;;;;0.10;0.10;;;;;;;;;;5066128;28;20215;-65
2022/02/21 09:06:25;;;;;;;0.10;0.10;;;;;;;;;;5065958;28;20210;-65
2022/02/21 09:08:51;;;;;;;0.10;0.10;;;;;;;;;;5066056;28;20231;-65
2022/02/21 09:11:17;;;;;;;0.10;0.10;;;;;;;;;;5066539;28;20479;-64
2022/02/21 09:13:45;;;;;;;0.10;0.10;;;;;;;;;;5066365;28;20212;-64
2022/02/21 09:16:12;;;;;;;1.17;1.17;;;;;;;;;;5066439;28;20550;-65
2022/02/21 09:18:38;;;;;;;0.10;0.10;;;;;;;;;;5065965;28;20204;-65
2022/02/21 09:21:04;;;;;;;0.10;0.10;;;;;;;;;;5066389;28;20231;-64
2022/02/21 09:23:31;;;;;;;0.10;0.10;;;;;;;;;;5065829;28;20244;-64
2022/02/21 09:25:59;;;;;;;1.23;1.23;;;;;;;;;;5066327;28;20264;-65
2022/02/21 09:28:26;;;;;;;0.10;0.10;;;;;;;;;;5065838;28;20242;-65
2022/02/21 09:30:55;;;;;;;0.10;0.10;;;;;;;;;;5066179;28;20503;-64
2022/02/21 09:33:21;;;;;;;0.10;0.10;;;;;;;;;;5065740;28;20211;-65
2022/02/21 09:35:48;;;;;;;0.10;0.10;;;;;;;;;;5066248;28;20210;-65
2022/02/21 09:38:15;;;;;;;0.10;0.10;;;;;;;;;;5065774;28;20204;-64
2022/02/21 09:40:41;;;;;;;0.10;0.10;;;;;;;;;;5065400;28;20228;-65
2022/02/21 09:43:08;;;;;;;1.70;1.60;;;;;;;;;;5065485;28;20204;-65
2022/02/21 09:45:35;;;;;;;0.10;0.10;;;;;;;;;;5065957;28;20204;-66
2022/02/21 09:48:03;;;;;;;0.10;0.10;;;;;;;;;;5065816;28;20239;-64
2022/02/21 09:50:30;;;;;;;0.10;0.10;;;;;;;;;;5065687;28;20232;-66
2022/02/21 09:53:01;;;;;;;0.20;0.20;;;;;;;;;;5065288;28;20207;-65
2022/02/21 09:55:28;;;;;;;0.20;0.20;;;;;;;;;;5065423;28;20259;-64
2022/02/21 09:57:55;;;;;;;0.10;0.10;;;;;;;;;;5065583;28;20434;-64
2022/02/21 10:00:21;;;;;;;0.10;0.10;;;;;;;;;;5065528;28;20389;-65
2022/02/21 10:02:49;;;;;;;0.10;0.10;;;;;;;;;;5065404;28;20557;-65
2022/02/21 10:05:18;;;;;;;0.10;0.10;;;;;;;;;;5065111;28;20207;-64
2022/02/21 10:07:45;;;;;;;0.10;0.10;;;;;;;;;;5065500;28;20492;-64
2022/02/21 10:10:12;;;;;;;0.10;0.10;;;;;;;;;;5065124;28;20314;-64
2022/02/21 10:12:57;;;;;;;0.10;0.10;;;;;;;;;;5065298;28;20507;-65
2022/02/21 10:15:25;;;;;;;0.10;0.10;;;;;;;;;;5065467;28;20403;-64
2022/02/21 10:17:51;;;;;;;0.10;0.10;;;;;;;;;;5065023;28;20499;-65
2022/02/21 10:20:20;;;;;;;0.10;0.10;;;;;;;;;;5064928;28;20289;-64
2022/02/21 10:23:03;;;;;;;0.10;0.10;;;;;;;;;;5064810;28;20228;-65
2022/02/21 10:25:29;;;;;;;0.10;0.10;;;;;;;;;;5065320;28;20207;-65
2022/02/21 10:27:57;;;;;;;0.10;0.10;;;;;;;;;;5064483;28;20203;-64
2022/02/21 10:30:24;;;;;;;0.10;0.10;;;;;;;;;;5065056;28;20537;-64
2022/02/21 10:32:51;;;;;;;0.10;0.10;;;;;;;;;;5064988;28;20203;-65
2022/02/21 10:35:20;;;;;;;0.20;0.20;;;;;;;;;;5064899;28;20282;-63
2022/02/21 10:37:47;;;;;;;0.10;0.10;;;;;;;;;;5064905;28;20412;-65
2022/02/21 10:40:14;;;;;;;0.10;0.10;;;;;;;;;;5064791;28;20411;-65
2022/02/21 10:42:41;;;;;;;0.10;0.10;;;;;;;;;;5064598;28;20238;-64
2022/02/21 10:45:13;;;;;;;0.20;0.20;;;;;;;;;;5064490;28;20248;-65
2022/02/21 10:47:40;;;;;;;0.10;0.10;;;;;;;;;;5064552;28;20212;-65
2022/02/21 10:50:06;;;;;;;0.13;0.13;;;;;;;;;;5064720;28;20258;-64
2022/02/21 10:52:36;;;;;;;0.10;0.10;;;;;;;;;;5064479;28;20260;-64
2022/02/21 10:55:05;;;;;;;0.10;0.10;;;;;;;;;;5064458;28;20399;-65
2022/02/21 10:57:38;;;;;;;0.20;0.20;;;;;;;;;;5064514;28;20249;-65
2022/02/21 11:00:05;;;;;;;0.10;0.10;;;;;;;;;;5064379;28;20439;-64
2022/02/21 11:02:32;;;;;;;0.10;0.10;;;;;;;;;;5063971;28;20294;-64
2022/02/21 11:05:01;;;;;;;0.10;0.10;;;;;;;;;;5064289;28;20210;-67
2022/02/21 11:07:28;;;;;;;0.70;0.70;;;;;;;;;;5063966;28;20222;-64
2022/02/21 11:10:01;;;;;;;0.20;0.20;;;;;;;;;;5064061;28;20242;-65
2022/02/21 11:12:32;;;;;;;0.20;0.20;;;;;;;;;;5064220;28;20220;-66
2022/02/21 11:15:00;;;;;;;0.10;0.10;;;;;;;;;;5064036;28;20265;-65
2022/02/21 11:17:27;;;;;;;0.10;0.10;;;;;;;;;;5063750;28;20204;-65
2022/02/21 11:19:53;;;;;;;0.13;0.13;;;;;;;;;;5063780;28;20231;-65
2022/02/21 11:22:21;;;;;;;0.20;0.20;;;;;;;;;;5062905;28;20224;-65
2022/02/21 11:24:49;;;;;;;0.17;0.17;;;;;;;;;;5063937;28;20206;-65
2022/02/21 11:27:31;;;;;;;0.20;0.20;;;;;;;;;;5063526;28;20281;-65
2022/02/21 11:30:03;;;;;;;0.20;0.20;;;;;;;;;;5063709;28;20236;-65
2022/02/21 11:32:29;;;;;;;0.20;0.20;;;;;;;;;;5063826;28;20428;-65
2022/02/21 11:35:13;;;;;;;0.10;0.10;;;;;;;;;;5063313;28;20207;-65
2022/02/21 11:37:39;;;;;;;0.10;0.10;;;;;;;;;;5063746;28;20226;-64
2022/02/21 11:40:07;;;;;;;0.20;0.20;;;;;;;;;;5063356;28;20224;-66
2022/02/21 11:42:42;;;;;;;0.20;0.20;;;;;;;;;;5063184;28;20273;-65
2022/02/21 11:45:22;;;;;;;0.10;0.10;;;;;;;;;;5063576;28;20245;-66
2022/02/21 11:47:48;;;;;;;0.10;0.10;;;;;;;;;;5063210;28;20199;-64
2022/02/21 11:50:24;;;;;;;0.10;0.10;;;;;;;;;;5063562;28;20553;-65
2022/02/21 11:52:52;;;;;;;0.10;0.10;;;;;;;;;;5063300;28;20574;-65
2022/02/21 11:55:35;;;;;;;0.20;0.20;;;;;;;;;;5063453;28;20245;-66
2022/02/21 11:58:26;;;;;;;0.20;0.20;;;;;;;;;;5063164;28;20203;-64
2022/02/21 12:00:54;;;;;;;0.10;0.10;;;;;;;;;;5062674;28;20253;-64
2022/02/21 12:03:22;;;;;;;0.20;0.20;;;;;;;;;;5062787;28;20226;-66
2022/02/21 12:05:49;;;;;;;0.10;0.10;;;;;;;;;;5063331;28;20214;-64
2022/02/21 12:08:20;;;;;;;0.30;0.30;;;;;;;;;;5063175;28;20208;-65
2022/02/21 12:11:10;;;;;;;0.10;0.10;;;;;;;;;;5063296;28;20274;-64
2022/02/21 12:13:57;;;;;;;0.20;0.20;;;;;;;;;;5063130;28;20208;-64
2022/02/21 12:16:27;;;;;;;0.20;0.20;;;;;;;;;;5062995;28;20526;-65
2022/02/21 12:18:57;;;;;;;0.10;0.10;;;;;;;;;;5062616;28;20389;-65
2022/02/21 12:21:26;;;;;;;0.10;0.10;;;;;;;;;;5062901;28;20218;-64
2022/02/21 12:24:07;;;;;;;1.33;0.90;;;;;;;;;;5062822;28;20226;-66
2022/02/21 12:26:35;;;;;;;0.30;0.30;;;;;;;;;;5062309;28;20204;-65
2022/02/21 12:29:09;;;;;;;0.10;0.10;;;;;;;;;;5062632;28;20524;-64
2022/02/21 12:31:38;;;;;;;0.20;0.20;;;;;;;;;;5062863;28;20245;-64
2022/02/21 12:34:06;;;;;;;0.10;0.10;;;;;;;;;;5061668;28;20241;-65
2022/02/21 12:36:35;;;;;;;0.10;0.10;;;;;;;;;;5062658;28;20504;-64
2022/02/21 12:39:02;;;;;;;0.13;0.13;;;;;;;;;;5062462;28;20547;-64
2022/02/21 12:41:32;;;;;;;0.10;0.10;;;;;;;;;;5062495;28;20569;-64
2022/02/21 12:43:59;;;;;;;0.20;0.20;;;;;;;;;;5062483;28;20279;-64
2022/02/21 12:46:27;;;;;;;0.10;0.10;;;;;;;;;;5062662;28;20210;-67
2022/02/21 12:48:53;;;;;;;0.17;0.17;;;;;;;;;;5062319;28;20210;-64
2022/02/21 12:51:21;;;;;;;0.20;0.20;;;;;;;;;;5062600;28;20204;-63
2022/02/21 12:54:00;;;;;;;0.10;0.10;;;;;;;;;;5062669;28;20206;-64
2022/02/21 12:56:26;;;;;;;0.10;0.10;;;;;;;;;;5062309;28;20191;-64
2022/02/21 12:58:53;;;;;;;0.20;0.20;;;;;;;;;;5062188;28;20239;-64
2022/02/21 13:01:20;;;;;;;0.20;0.20;;;;;;;;;;5062424;28;20518;-63
2022/02/21 13:03:55;;;;;;;0.10;0.10;;;;;;;;;;5062190;28;20269;-64
2022/02/21 13:06:21;;;;;;;0.10;0.10;;;;;;;;;;5062494;28;20253;-65
2022/02/21 13:08:47;;;;;;;0.10;0.10;;;;;;;;;;5062403;28;20222;-64
2022/02/21 13:11:21;;;;;;;0.17;0.17;;;;;;;;;;5062599;28;20513;-64
2022/02/21 13:13:48;;;;;;;0.10;0.10;;;;;;;;;;5062575;28;20258;-65
2022/02/21 13:16:14;;;;;;;0.10;0.10;;;;;;;;;;5062041;28;20211;-64
2022/02/21 13:18:48;;;;;;;0.10;0.10;;;;;;;;;;5062169;28;20279;-64
2022/02/21 13:21:26;;;;;;;0.10;0.10;;;;;;;;;;5062571;28;20521;-64
2022/02/21 13:23:54;;;;;;;0.20;0.20;;;;;;;;;;5062283;28;20238;-64
2022/02/21 13:26:21;;;;;;;0.10;0.10;;;;;;;;;;5062362;28;20254;-65
2022/02/21 13:28:48;;;;;;;0.10;0.10;;;;;;;;;;5062305;28;20218;-64
2022/02/21 13:31:14;;;;;;;0.10;0.10;;;;;;;;;;5062471;28;20497;-64
2022/02/21 13:33:41;;;;;;;0.20;0.20;;;;;;;;;;5062189;28;20553;-65
2022/02/21 13:36:07;;;;;;;0.10;0.10;;;;;;;;;;5062336;28;20207;-64
2022/02/21 13:38:35;;;;;;;0.20;0.20;;;;;;;;;;5062033;28;20214;-64
2022/02/21 13:41:02;;;;;;;0.20;0.20;;;;;;;;;;5061779;28;20464;-64
2022/02/21 13:43:28;;;;;;;0.10;0.10;;;;;;;;;;5061771;28;20227;-64
2022/02/21 13:45:55;;;;;;;0.20;0.20;;;;;;;;;;5065493;28;20208;-64
2022/02/21 13:48:23;;;;;;;1.23;1.23;;;;;;;;;;5065788;28;20236;-64
2022/02/21 13:50:51;;;;;;;0.10;0.10;;;;;;;;;;5065909;28;20215;-66
2022/02/21 13:53:31;;;;;;;0.20;0.20;;;;;;;;;;5065719;28;20207;-65
2022/02/21 13:56:00;;;;;;;0.10;0.10;;;;;;;;;;5065252;28;20425;-65
2022/02/21 13:58:28;;;;;;;0.10;0.10;;;;;;;;;;5065193;28;20266;-64
2022/02/21 14:00:54;;;;;;;0.20;0.20;;;;;;;;;;5065743;28;20495;-64
2022/02/21 14:03:21;;;;;;;0.17;0.17;;;;;;;;;;5065285;28;20227;-63
2022/02/21 14:05:54;;;;;;;0.10;0.10;;;;;;;;;;5065030;28;20381;-64
2022/02/21 14:08:21;;;;;;;0.20;0.20;;;;;;;;;;5065363;28;20207;-63
2022/02/21 14:10:57;;;;;;;0.10;0.10;;;;;;;;;;5065448;28;20214;-63
2022/02/21 14:13:25;;;;;;;0.93;0.93;;;;;;;;;;5064916;28;20420;-64
2022/02/21 14:15:55;;;;;;;0.20;0.20;;;;;;;;;;5064708;28;20281;-64
2022/02/21 14:18:22;;;;;;;0.20;0.20;;;;;;;;;;5065496;28;20253;-64
2022/02/21 14:20:48;;;;;;;0.10;0.10;;;;;;;;;;5065052;28;20302;-64
2022/02/21 14:23:15;;;;;;;2.83;1.07;;;;;;;;;;5064737;28;20222;-64
2022/02/21 14:25:42;;;;;;;0.20;0.20;;;;;;;;;;5065152;28;20432;-64
2022/02/21 14:28:08;;;;;;;0.10;0.10;;;;;;;;;;5064649;28;20211;-64
2022/02/21 14:30:36;;;;;;;0.20;0.20;;;;;;;;;;5064992;28;20402;-65
2022/02/21 14:33:02;;;;;;;0.10;0.10;;;;;;;;;;5064874;28;20228;-65
2022/02/21 14:35:32;;;;;;;0.10;0.10;;;;;;;;;;5064847;28;20215;-66
2022/02/21 14:37:58;;;;;;;0.10;0.10;;;;;;;;;;5064444;28;20210;-65
2022/02/21 14:40:24;;;;;;;0.10;0.10;;;;;;;;;;5064792;28;20275;-65
2022/02/21 14:42:52;;;;;;;0.10;0.10;;;;;;;;;;5064259;28;20231;-65
2022/02/21 14:45:19;;;;;;;0.20;0.20;;;;;;;;;;5064564;28;20205;-64